Terminal Aerodrome Forecast
Issued by NWS Wilmington, OH

Current Version | Previous Version | Text Only | Print | Product List | Glossary Off
Versions: 1 2 3 4 5 6 7 8 9 10 11 12 13 14 15 16 17

000
FTUS41 KILN 300500
TAFCMH
TAF
KCMH 300539Z 3006/3106 31004KT P6SM BKN045
     FM301200 31003KT P6SM SCT040
     FM302300 00000KT P6SM SCT040 SCT120 BKN200
     FM310200 00000KT P6SM SCT040 BKN080=

USA.gov is the U.S. government's official web portal to all federal, state and local government web resources and services.